createdAt,value
2023-01-23T00:00:52.710Z,102705.91
2023-01-23T00:03:56.501Z,102713.25
2023-01-23T00:07:00.456Z,102714.22
2023-01-23T00:10:02.627Z,102721.75
2023-01-23T00:13:05.082Z,102721.28
2023-01-23T00:16:13.044Z,102718.59
2023-01-23T00:19:15.237Z,102719.44
2023-01-23T00:22:19.142Z,102738.19
2023-01-23T00:25:22.147Z,102728.03
2023-01-23T00:28:24.199Z,102721.59
2023-01-23T00:31:29.316Z,102738.03
2023-01-23T00:34:33.000Z,102728.84
2023-01-23T00:37:35.297Z,102734.09
2023-01-23T00:40:37.682Z,102736.97
2023-01-23T00:43:42.532Z,102745.78
2023-01-23T00:46:45.824Z,102741.00
2023-01-23T00:49:48.184Z,102736.59
2023-01-23T00:52:50.548Z,102738.63
2023-01-23T00:55:53.705Z,102740.69
2023-01-23T00:58:56.796Z,102758.84
2023-01-23T01:01:59.106Z,102754.28
2023-01-23T01:05:02.037Z,102756.34
2023-01-23T01:08:06.231Z,102746.88
2023-01-23T01:11:08.728Z,102754.44
2023-01-23T01:14:10.919Z,102747.63
2023-01-23T01:17:14.131Z,102754.34
2023-01-23T01:20:16.818Z,102752.03
2023-01-23T01:23:20.847Z,102758.28
2023-01-23T01:26:23.884Z,102759.03
2023-01-23T01:29:25.899Z,102751.28
2023-01-23T01:32:27.980Z,102762.69
2023-01-23T01:35:30.055Z,102744.69
2023-01-23T01:38:32.215Z,102747.84
2023-01-23T01:41:34.452Z,102755.91
2023-01-23T01:44:57.127Z,102771.63
2023-01-23T01:47:59.170Z,102760.25
2023-01-23T01:51:04.274Z,102769.19
2023-01-23T01:54:38.534Z,102783.16
2023-01-23T01:57:45.822Z,102786.09
2023-01-23T02:00:53.836Z,102786.63
2023-01-23T02:03:55.911Z,102781.34
2023-01-23T02:07:01.124Z,102787.94
2023-01-23T02:10:06.101Z,102794.06
2023-01-23T02:13:33.855Z,102791.97
2023-01-23T02:16:41.777Z,102793.50
2023-01-23T02:20:09.563Z,102793.88
2023-01-23T02:23:43.411Z,102790.16
2023-01-23T02:26:48.078Z,102790.66
2023-01-23T02:29:53.339Z,102776.31
2023-01-23T02:32:56.519Z,102790.78
2023-01-23T02:36:00.968Z,102787.09
2023-01-23T02:39:14.865Z,102789.19
2023-01-23T02:42:17.623Z,102809.66
2023-01-23T02:45:23.905Z,102802.66
2023-01-23T02:48:26.120Z,102813.44
2023-01-23T02:51:28.280Z,102806.31
2023-01-23T02:54:31.997Z,102812.66
2023-01-23T02:57:34.976Z,102793.66
2023-01-23T03:00:37.168Z,102812.47
2023-01-23T03:03:42.316Z,102804.50
2023-01-23T03:06:44.449Z,102823.31
2023-01-23T03:09:48.030Z,102804.66
2023-01-23T03:12:50.180Z,102820.22
2023-01-23T03:15:56.495Z,102819.09
2023-01-23T03:19:01.731Z,102817.75
2023-01-23T03:22:05.368Z,102821.78
2023-01-23T03:25:07.998Z,102822.31
2023-01-23T03:28:33.750Z,102835.84
2023-01-23T03:31:35.976Z,102836.72
2023-01-23T03:34:38.863Z,102825.78
2023-01-23T03:37:41.936Z,102830.69
2023-01-23T03:41:14.645Z,102834.00
2023-01-23T03:44:19.437Z,102827.16
2023-01-23T03:47:22.325Z,102834.88
2023-01-23T03:50:25.036Z,102825.09
2023-01-23T03:53:27.418Z,102826.44
2023-01-23T03:56:29.881Z,102834.56
2023-01-23T03:59:32.556Z,102831.13
2023-01-23T04:02:34.947Z,102835.28
2023-01-23T04:05:39.363Z,102839.97
2023-01-23T04:08:42.409Z,102830.38
2023-01-23T04:11:45.202Z,102845.81
2023-01-23T04:14:48.630Z,102839.88
2023-01-23T04:17:51.545Z,102853.16
2023-01-23T04:20:54.331Z,102852.63
2023-01-23T04:23:56.691Z,102866.81
2023-01-23T04:26:58.880Z,102855.66
2023-01-23T04:30:03.657Z,102872.84
2023-01-23T04:33:06.803Z,102849.13
2023-01-23T04:36:11.494Z,102865.34
2023-01-23T04:39:13.746Z,102871.84
2023-01-23T04:42:19.030Z,102873.13
2023-01-23T04:45:38.935Z,102876.41
2023-01-23T04:49:13.429Z,102867.41
2023-01-23T04:52:15.714Z,102855.06
2023-01-23T04:55:28.294Z,102823.03
2023-01-23T04:58:32.971Z,102859.91
2023-01-23T05:01:38.432Z,102868.13
2023-01-23T05:04:41.200Z,102875.34
2023-01-23T05:07:43.973Z,102878.00
2023-01-23T05:10:49.551Z,102865.22
2023-01-23T05:13:53.974Z,102882.47
2023-01-23T05:16:56.820Z,102887.78
2023-01-23T05:20:10.277Z,102894.13
2023-01-23T05:23:13.584Z,102890.63
2023-01-23T05:26:22.416Z,102894.06
2023-01-23T05:29:24.502Z,102900.22
2023-01-23T05:32:38.239Z,102905.31
2023-01-23T05:35:46.507Z,102893.09
2023-01-23T05:38:48.847Z,102900.53
2023-01-23T05:41:52.463Z,102907.47
2023-01-23T05:45:26.686Z,102916.88
2023-01-23T05:48:29.348Z,102914.16
2023-01-23T05:51:34.587Z,102922.44
2023-01-23T05:54:36.667Z,102902.97
2023-01-23T05:57:38.844Z,102915.78
2023-01-23T06:00:49.868Z,102932.72
2023-01-23T06:04:14.213Z,102921.28
2023-01-23T06:07:27.443Z,102936.22
2023-01-23T06:10:32.604Z,102949.88
2023-01-23T06:13:36.617Z,102945.28
2023-01-23T06:16:39.808Z,102928.13
2023-01-23T06:19:43.661Z,102895.53
2023-01-23T06:22:46.939Z,102933.44
2023-01-23T06:25:49.784Z,102943.31
2023-01-23T06:28:53.011Z,102941.75
2023-01-23T06:31:56.732Z,102933.25
2023-01-23T06:34:58.898Z,102942.47
2023-01-23T06:38:00.925Z,102959.75
2023-01-23T06:41:04.111Z,102964.19
2023-01-23T06:44:11.148Z,102963.41
2023-01-23T06:47:13.518Z,102949.22
2023-01-23T06:50:17.795Z,102953.31
2023-01-23T06:53:19.926Z,102978.16
2023-01-23T06:56:24.825Z,102971.53
2023-01-23T06:59:27.817Z,102978.38
2023-01-23T07:02:31.562Z,102976.00
2023-01-23T07:05:37.540Z,102981.56
2023-01-23T07:08:40.149Z,102970.25
2023-01-23T07:11:43.092Z,102960.78
2023-01-23T07:14:45.309Z,102975.09
2023-01-23T07:17:50.826Z,102976.97
2023-01-23T07:20:52.973Z,102985.03
2023-01-23T07:23:55.042Z,102987.75
2023-01-23T07:26:58.949Z,103004.41
2023-01-23T07:30:01.025Z,102988.19
2023-01-23T07:33:03.831Z,102992.63
2023-01-23T07:36:07.208Z,102998.59
2023-01-23T07:39:10.016Z,103000.00
2023-01-23T07:42:12.151Z,102993.59
2023-01-23T07:45:17.125Z,102981.78
2023-01-23T07:48:19.372Z,103003.09
2023-01-23T07:51:21.415Z,103006.59
2023-01-23T07:54:23.583Z,103010.69
2023-01-23T07:57:25.604Z,103003.31
2023-01-23T08:00:29.703Z,103009.53
2023-01-23T08:03:33.455Z,103009.09
2023-01-23T08:06:36.721Z,103005.63
2023-01-23T08:09:38.979Z,103025.50
2023-01-23T08:12:41.090Z,103025.38
2023-01-23T08:15:43.218Z,103017.44
2023-01-23T08:18:46.365Z,103026.88
2023-01-23T08:21:48.491Z,103048.13
2023-01-23T08:24:50.653Z,103062.47
2023-01-23T08:27:52.885Z,103065.88
2023-01-23T08:30:55.561Z,103081.47
2023-01-23T08:33:57.726Z,103070.63
2023-01-23T08:37:02.034Z,103066.31
2023-01-23T08:40:05.085Z,103041.59
2023-01-23T08:43:07.256Z,103075.22
2023-01-23T08:46:11.868Z,103075.00
2023-01-23T08:49:14.055Z,103085.53
2023-01-23T08:52:16.429Z,103084.88
2023-01-23T08:55:19.036Z,103077.53
2023-01-23T08:58:22.602Z,103082.84
2023-01-23T09:01:27.752Z,103083.00
2023-01-23T09:04:32.002Z,103065.19
2023-01-23T09:07:37.472Z,103075.25
2023-01-23T09:10:39.545Z,103072.38
2023-01-23T09:13:41.967Z,103076.88
2023-01-23T09:16:44.364Z,103069.41
2023-01-23T09:19:46.342Z,103082.97
2023-01-23T09:22:48.591Z,103085.22
2023-01-23T09:25:50.792Z,103090.25
2023-01-23T09:28:55.261Z,103081.78
2023-01-23T09:31:58.740Z,103093.41
2023-01-23T09:35:00.893Z,103090.50
2023-01-23T09:38:06.912Z,103068.66
2023-01-23T09:41:20.068Z,103073.69
2023-01-23T09:44:42.788Z,103079.25
2023-01-23T09:47:59.349Z,103083.53
2023-01-23T09:51:12.022Z,103069.84
2023-01-23T09:54:34.830Z,103078.91
2023-01-23T09:57:43.841Z,103061.63
2023-01-23T10:00:47.483Z,103058.56
2023-01-23T10:03:50.041Z,103066.56
2023-01-23T10:07:22.816Z,103065.41
2023-01-23T10:10:52.686Z,103055.88
2023-01-23T10:14:00.993Z,103049.31
2023-01-23T10:17:37.792Z,103053.53
2023-01-23T10:21:07.381Z,103046.88
2023-01-23T10:24:40.685Z,103042.34
2023-01-23T10:27:46.455Z,103040.81
2023-01-23T10:30:55.119Z,103037.91
2023-01-23T10:34:09.333Z,103023.25
2023-01-23T10:37:15.627Z,103028.94
2023-01-23T10:40:40.418Z,103035.19
2023-01-23T10:43:43.618Z,103032.19
2023-01-23T10:46:56.547Z,103028.56
2023-01-23T10:49:58.673Z,103023.94
2023-01-23T10:53:09.335Z,103026.72
2023-01-23T10:56:17.594Z,103015.28
2023-01-23T10:59:25.870Z,103024.22
2023-01-23T11:02:39.317Z,103015.94
2023-01-23T11:05:52.558Z,103000.31
2023-01-23T11:09:00.704Z,103009.66
2023-01-23T11:12:06.969Z,103001.22
2023-01-23T11:15:28.330Z,102998.00
2023-01-23T11:18:36.180Z,102996.22
2023-01-23T11:21:49.074Z,102998.28
2023-01-23T11:24:51.203Z,102983.75
2023-01-23T11:28:01.630Z,102979.66
2023-01-23T11:31:16.799Z,102976.16
2023-01-23T11:34:23.730Z,102977.25
2023-01-23T11:37:32.323Z,102977.41
2023-01-23T11:40:34.525Z,102977.53
2023-01-23T11:43:36.637Z,102977.16
2023-01-23T11:47:08.724Z,102982.94
2023-01-23T11:50:22.775Z,102986.28
2023-01-23T11:53:44.899Z,102982.78
2023-01-23T11:57:01.435Z,102981.97
2023-01-23T12:00:31.967Z,102975.59
2023-01-23T12:03:39.920Z,102988.56
2023-01-23T12:07:13.887Z,102984.63
2023-01-23T12:10:42.642Z,102985.03
2023-01-23T12:13:47.413Z,102995.19
2023-01-23T12:17:26.540Z,102991.19
2023-01-23T12:20:53.736Z,102985.81
2023-01-23T12:23:56.497Z,102982.94
2023-01-23T12:27:19.426Z,102974.09
2023-01-23T12:30:23.678Z,102988.88
2023-01-23T12:33:33.865Z,102980.34
2023-01-23T12:37:06.242Z,102999.28
2023-01-23T12:40:22.938Z,103005.16
2023-01-23T12:43:48.345Z,103012.06
2023-01-23T12:47:14.271Z,102996.94
2023-01-23T12:50:22.380Z,102999.19
2023-01-23T12:53:24.985Z,102994.38
2023-01-23T12:56:34.083Z,103018.50
2023-01-23T12:59:53.991Z,103012.88
2023-01-23T13:03:46.449Z,103015.69
2023-01-23T13:07:03.724Z,103013.97
2023-01-23T13:10:59.313Z,103026.88
2023-01-23T13:14:01.951Z,103028.22
2023-01-23T13:17:31.249Z,103021.97
2023-01-23T13:21:15.205Z,103013.53
2023-01-23T13:25:06.327Z,103023.31
2023-01-23T13:28:59.278Z,103020.84
2023-01-23T13:32:22.095Z,103032.81
2023-01-23T13:35:39.439Z,103031.63
2023-01-23T13:38:42.518Z,103008.63
2023-01-23T13:41:52.427Z,103028.06
2023-01-23T13:45:21.583Z,103021.94
2023-01-23T14:21:41.980Z,103015.31
2023-01-23T14:24:51.633Z,103017.16
2023-01-23T14:28:06.320Z,103002.38
2023-01-23T14:31:30.295Z,103002.09
2023-01-23T14:34:43.199Z,103021.47
2023-01-23T14:37:45.750Z,103021.38
2023-01-23T14:40:50.915Z,103016.72
2023-01-23T14:43:58.353Z,103017.28
2023-01-23T14:47:03.877Z,103031.53
2023-01-23T14:50:30.296Z,103019.97
2023-01-23T14:53:33.357Z,103018.56
2023-01-23T14:56:38.766Z,103030.66
2023-01-23T14:59:43.728Z,103031.31
2023-01-23T15:02:51.482Z,103025.16
2023-01-23T15:05:59.651Z,103035.88
2023-01-23T15:09:16.371Z,103034.00
2023-01-23T15:12:19.136Z,103022.97
2023-01-23T15:15:23.683Z,103024.81
2023-01-23T15:18:30.257Z,103028.63
2023-01-23T15:21:40.007Z,103033.69
2023-01-23T15:24:44.237Z,103019.63
2023-01-23T15:27:47.191Z,103027.78
2023-01-23T15:30:49.648Z,103020.44
2023-01-23T15:33:56.848Z,103037.22
2023-01-23T15:37:14.233Z,103024.69
2023-01-23T15:40:18.845Z,103034.53
2023-01-23T15:43:31.464Z,103032.47
2023-01-23T15:46:46.379Z,103011.19
2023-01-23T15:49:53.101Z,103030.31
2023-01-23T15:52:57.005Z,103051.31
2023-01-23T15:56:02.340Z,103039.56
2023-01-23T15:59:14.074Z,103038.63
2023-01-23T16:02:29.980Z,103034.81
2023-01-23T16:05:37.455Z,103035.03
2023-01-23T16:08:40.777Z,103043.75
2023-01-23T16:11:45.523Z,103032.56
2023-01-23T16:14:51.221Z,103047.56
2023-01-23T16:17:55.152Z,103038.34
2023-01-23T16:20:58.213Z,103047.94
2023-01-23T16:24:00.393Z,103058.47
2023-01-23T16:27:04.262Z,103056.16
2023-01-23T16:30:16.567Z,103052.22
2023-01-23T16:33:21.064Z,103050.16
2023-01-23T16:36:23.451Z,103044.00
2023-01-23T16:39:30.908Z,103052.44
2023-01-23T16:42:34.430Z,103062.78
2023-01-23T16:45:40.507Z,103053.81
2023-01-23T16:48:55.239Z,103050.81
2023-01-23T16:55:21.412Z,103067.44
2023-01-23T16:58:33.013Z,103016.78
2023-01-23T17:01:51.190Z,103056.13
2023-01-23T17:05:23.089Z,103056.91
2023-01-23T17:08:48.890Z,103043.25
2023-01-23T17:11:56.106Z,103047.59
2023-01-23T17:14:59.349Z,103052.13
2023-01-23T17:18:02.093Z,103030.63
2023-01-23T17:21:05.955Z,103047.97
2023-01-23T17:24:15.408Z,103053.91
2023-01-23T17:27:17.603Z,103069.75
2023-01-23T17:30:23.398Z,103071.22
2023-01-23T17:33:31.748Z,103074.38
2023-01-23T17:36:34.034Z,103066.34
2023-01-23T17:39:36.601Z,103064.34
2023-01-23T17:42:39.480Z,103077.63
2023-01-23T17:45:44.364Z,103063.50
2023-01-23T17:48:46.598Z,103072.09
2023-01-23T17:51:48.691Z,103063.66
2023-01-23T17:54:50.974Z,103065.16
2023-01-23T17:57:53.920Z,103064.56
2023-01-23T18:00:56.333Z,103067.50
2023-01-23T18:07:52.987Z,103081.00
2023-01-23T18:10:59.051Z,103100.25
2023-01-23T18:14:28.915Z,103094.25
2023-01-23T18:17:38.183Z,103088.88
2023-01-23T18:20:40.591Z,103091.72
2023-01-23T18:23:45.583Z,103082.31
2023-01-23T18:26:59.542Z,103074.97
2023-01-23T18:30:33.411Z,103077.28
2023-01-23T18:33:52.029Z,103086.19
2023-01-23T18:37:28.337Z,103085.50
2023-01-23T18:40:48.870Z,103093.38
2023-01-23T18:43:57.553Z,103081.47
2023-01-23T18:47:05.770Z,103087.78
2023-01-23T18:50:09.216Z,103071.78
2023-01-23T18:53:43.685Z,103082.16
2023-01-23T18:56:53.025Z,103091.63
2023-01-23T19:00:04.578Z,103090.88
2023-01-23T19:03:15.975Z,103085.81
2023-01-23T19:06:43.332Z,103101.25
2023-01-23T19:09:47.805Z,103098.59
2023-01-23T19:12:58.609Z,103100.41
2023-01-23T19:16:16.073Z,103110.94
2023-01-23T19:19:31.211Z,103094.72
2023-01-23T19:22:48.957Z,103093.28
2023-01-23T19:25:51.529Z,103096.09
2023-01-23T19:28:55.525Z,103088.53
2023-01-23T19:32:05.029Z,103099.81
2023-01-23T19:35:14.015Z,103100.00
2023-01-23T19:38:18.059Z,103098.84
2023-01-23T19:41:23.259Z,103097.28
2023-01-23T19:44:29.135Z,103100.94
2023-01-23T19:47:32.294Z,103102.63
2023-01-23T19:50:36.896Z,103093.09
2023-01-23T19:53:39.605Z,103093.66
2023-01-23T19:56:43.337Z,103071.31
2023-01-23T19:59:46.545Z,103093.66
2023-01-23T20:02:49.479Z,103067.69
2023-01-23T20:05:52.097Z,103076.13
2023-01-23T20:08:54.339Z,103081.69
2023-01-23T20:11:58.438Z,103072.78
2023-01-23T20:15:00.934Z,103071.47
2023-01-23T20:18:04.051Z,103072.25
2023-01-23T20:21:09.116Z,103070.13
2023-01-23T20:24:11.603Z,103079.44
2023-01-23T20:27:13.922Z,103075.41
2023-01-23T20:30:21.370Z,103075.25
2023-01-23T20:33:25.501Z,103079.53
2023-01-23T20:36:29.663Z,103080.66
2023-01-23T20:39:32.159Z,103087.31
2023-01-23T20:42:35.664Z,103093.88
2023-01-23T20:45:55.864Z,103097.38
2023-01-23T20:48:58.098Z,103084.81
2023-01-23T20:52:21.132Z,103086.41
2023-01-23T20:55:23.628Z,103082.19
2023-01-23T20:58:47.993Z,103067.09
2023-01-23T21:02:10.678Z,103066.00
2023-01-23T21:05:12.752Z,103089.66
2023-01-23T21:08:16.404Z,103088.50
2023-01-23T21:11:21.348Z,103095.72
2023-01-23T21:14:25.053Z,103100.81
2023-01-23T21:17:27.789Z,103096.44
2023-01-23T21:20:30.423Z,103102.44
2023-01-23T21:23:37.140Z,103112.13
2023-01-23T21:26:41.893Z,103109.81
2023-01-23T21:29:54.605Z,103094.28
2023-01-23T21:32:57.541Z,103108.47
2023-01-23T21:36:02.673Z,103099.41
2023-01-23T21:39:24.899Z,103103.97
2023-01-23T21:42:27.976Z,103095.22
2023-01-23T21:45:30.480Z,103094.38
2023-01-23T21:48:33.995Z,103095.25
2023-01-23T21:51:37.428Z,103092.78
2023-01-23T21:54:42.152Z,103087.72
2023-01-23T21:57:47.884Z,103090.66
2023-01-23T22:01:18.687Z,103088.69
2023-01-23T22:04:25.944Z,103067.06
2023-01-23T22:07:28.757Z,103087.84
2023-01-23T22:10:31.910Z,103078.63
2023-01-23T22:13:36.985Z,103089.19
2023-01-23T22:16:54.597Z,103098.41
2023-01-23T22:19:58.293Z,103100.50
2023-01-23T22:23:01.223Z,103081.47
2023-01-23T22:26:07.950Z,103096.31
2023-01-23T22:29:13.780Z,103067.34
2023-01-23T22:32:18.917Z,103070.91
2023-01-23T22:35:24.746Z,103078.63
2023-01-23T22:38:26.927Z,103061.06
2023-01-23T22:41:29.022Z,103079.41
2023-01-23T22:44:31.472Z,103072.00
2023-01-23T22:47:36.795Z,103084.78
2023-01-23T22:50:42.662Z,103078.63
2023-01-23T22:53:45.135Z,103068.78
2023-01-23T22:56:49.368Z,103081.81
2023-01-23T22:59:52.373Z,103065.47
2023-01-23T23:02:54.439Z,103070.53
2023-01-23T23:06:08.085Z,103069.78
2023-01-23T23:09:11.104Z,103064.81
2023-01-23T23:12:14.206Z,103064.31
2023-01-23T23:15:17.868Z,103071.69
2023-01-23T23:18:20.205Z,103061.00
2023-01-23T23:21:29.399Z,103072.19
2023-01-23T23:24:37.542Z,103065.13
2023-01-23T23:27:40.311Z,103072.75
2023-01-23T23:30:42.391Z,103062.09
2023-01-23T23:33:45.436Z,103070.66
2023-01-23T23:36:49.272Z,103075.66
2023-01-23T23:39:52.531Z,103069.13
2023-01-23T23:42:56.088Z,103066.88
2023-01-23T23:46:00.720Z,103070.19
2023-01-23T23:49:06.591Z,103064.97
2023-01-23T23:52:10.311Z,103065.91
2023-01-23T23:55:13.267Z,103071.53
2023-01-23T23:58:16.936Z,103069.28
